createdAt,value
2022-08-14T00:02:20.040Z,21.77
2022-08-14T00:05:06.988Z,21.76
2022-08-14T00:07:47.265Z,21.84
2022-08-14T00:10:51.363Z,21.78
2022-08-14T00:13:35.610Z,21.76
2022-08-14T00:16:41.627Z,21.72
2022-08-14T00:19:29.973Z,21.64
2022-08-14T00:22:15.545Z,21.63
2022-08-14T00:25:22.951Z,21.55
2022-08-14T00:28:10.976Z,21.50
2022-08-14T00:31:04.694Z,21.38
2022-08-14T00:33:53.028Z,21.39
2022-08-14T00:36:49.229Z,21.34
2022-08-14T00:39:36.987Z,21.33
2022-08-14T00:42:55.034Z,21.29
2022-08-14T00:45:24.419Z,21.27
2022-08-14T00:48:10.902Z,21.14
2022-08-14T00:50:53.457Z,21.06
2022-08-14T00:53:43.762Z,21.05
2022-08-14T00:56:25.826Z,20.99
2022-08-14T00:59:17.950Z,20.93
2022-08-14T01:02:00.806Z,20.90
2022-08-14T01:04:54.231Z,20.81
2022-08-14T01:07:50.408Z,20.87
2022-08-14T01:10:51.353Z,20.84
2022-08-14T01:13:42.992Z,20.85
2022-08-14T01:16:27.381Z,20.78
2022-08-14T01:19:36.882Z,20.88
2022-08-14T01:22:20.058Z,20.91
2022-08-14T01:25:07.858Z,20.99
2022-08-14T01:27:56.948Z,21.01
2022-08-14T01:30:44.939Z,20.89
2022-08-14T01:33:29.177Z,20.86
2022-08-14T01:36:21.151Z,20.70
2022-08-14T01:39:12.818Z,20.88
2022-08-14T01:42:03.902Z,20.81
2022-08-14T01:44:58.667Z,20.67
2022-08-14T01:47:45.879Z,20.78
2022-08-14T01:50:29.013Z,20.73
2022-08-14T01:53:16.908Z,20.75
2022-08-14T01:55:58.773Z,20.73
2022-08-14T01:58:57.176Z,20.80
2022-08-14T02:01:41.995Z,20.75
2022-08-14T02:04:56.617Z,20.73
2022-08-14T02:07:53.785Z,20.68
2022-08-14T02:10:48.881Z,20.69
2022-08-14T02:13:37.201Z,20.64
2022-08-14T02:16:22.440Z,20.61
2022-08-14T02:19:12.865Z,20.57
2022-08-14T02:22:03.359Z,20.54
2022-08-14T02:24:45.303Z,20.55
2022-08-14T02:28:23.733Z,20.62
2022-08-14T02:30:38.315Z,20.56
2022-08-14T02:33:25.838Z,20.56
2022-08-14T02:37:02.921Z,20.48
2022-08-14T02:39:17.844Z,20.51
2022-08-14T02:42:06.801Z,20.47
2022-08-14T02:44:59.801Z,20.49
2022-08-14T02:47:39.924Z,20.39
2022-08-14T02:50:34.836Z,20.30
2022-08-14T03:12:34.347Z,19.71
2022-08-14T03:15:21.409Z,19.80
2022-08-14T03:18:09.342Z,19.94
2022-08-14T03:20:58.381Z,20.09
2022-08-14T03:23:39.159Z,20.20
2022-08-14T03:26:32.339Z,20.30
2022-08-14T03:29:14.475Z,20.45
2022-08-14T03:32:02.333Z,20.51
2022-08-14T03:34:48.410Z,20.63
2022-08-14T03:39:11.817Z,20.73
2022-08-14T03:40:43.602Z,20.84
2022-08-14T03:43:34.320Z,20.92
2022-08-14T03:46:52.715Z,20.96
2022-08-14T03:49:29.483Z,21.02
2022-08-14T03:52:28.145Z,21.08
2022-08-14T03:55:14.431Z,21.13
2022-08-14T03:58:02.330Z,21.14
2022-08-14T04:00:46.311Z,21.16
2022-08-14T04:03:33.347Z,21.21
2022-08-14T04:06:21.135Z,21.30
2022-08-14T04:09:08.319Z,21.63
2022-08-14T04:11:49.426Z,21.88
2022-08-14T04:14:37.477Z,22.18
2022-08-14T04:17:25.278Z,22.50
2022-08-14T04:20:14.289Z,22.67
2022-08-14T04:23:18.506Z,22.95
2022-08-14T04:26:14.629Z,22.98
2022-08-14T04:29:06.998Z,23.16
2022-08-14T04:32:58.633Z,23.35
2022-08-14T04:35:07.678Z,23.18
2022-08-14T04:38:37.280Z,23.53
2022-08-14T04:41:33.959Z,23.81
2022-08-14T04:44:26.562Z,23.77
2022-08-14T04:48:01.264Z,23.92
2022-08-14T04:50:58.360Z,24.14
2022-08-14T04:53:43.002Z,23.81
2022-08-14T04:56:31.475Z,23.92
2022-08-14T04:59:21.282Z,24.33
2022-08-14T05:02:01.740Z,24.71
2022-08-14T05:04:57.079Z,24.74
2022-08-14T05:07:46.347Z,25.13
2022-08-14T05:10:34.243Z,25.60
2022-08-14T05:13:24.572Z,25.95
2022-08-14T05:16:20.252Z,26.34
2022-08-14T05:19:18.938Z,26.64
2022-08-14T05:22:17.495Z,26.56
2022-08-14T05:25:07.259Z,27.48
2022-08-14T05:27:47.339Z,28.05
2022-08-14T05:30:34.244Z,28.10
2022-08-14T05:33:21.254Z,28.23
2022-08-14T05:36:04.976Z,28.60
2022-08-14T05:38:57.238Z,29.99
2022-08-14T05:41:52.322Z,30.31
2022-08-14T05:44:41.216Z,29.37
2022-08-14T05:47:28.542Z,30.64
2022-08-14T05:50:26.254Z,30.50
2022-08-14T05:53:23.231Z,31.10
2022-08-14T05:56:03.617Z,31.62
2022-08-14T05:58:50.225Z,32.86
2022-08-14T06:01:31.554Z,32.79
2022-08-14T06:04:19.198Z,33.32
2022-08-14T06:06:59.689Z,33.03
2022-08-14T06:09:50.943Z,33.07
2022-08-14T06:12:56.569Z,32.39
2022-08-14T06:15:37.186Z,32.06
2022-08-14T06:18:18.131Z,33.14
2022-08-14T06:21:05.183Z,32.59
2022-08-14T06:24:00.222Z,33.61
2022-08-14T06:26:40.428Z,34.38
2022-08-14T06:29:33.368Z,34.34
2022-08-14T06:32:36.593Z,34.17
2022-08-14T06:35:23.169Z,34.70
2022-08-14T06:38:06.284Z,34.94
2022-08-14T06:40:54.183Z,34.95
2022-08-14T06:43:41.177Z,35.73
2022-08-14T06:46:37.026Z,37.28
2022-08-14T06:49:24.186Z,36.75
2022-08-14T06:52:15.054Z,37.39
2022-08-14T06:55:04.171Z,36.07
2022-08-14T06:57:53.191Z,35.23
2022-08-14T07:00:35.262Z,36.43
2022-08-14T07:03:41.175Z,37.64
2022-08-14T07:06:46.435Z,38.61
2022-08-14T07:09:43.897Z,39.04
2022-08-14T07:12:56.316Z,40.11
2022-08-14T07:15:45.141Z,36.85
2022-08-14T07:18:36.117Z,33.54
2022-08-14T07:21:23.130Z,32.63
2022-08-14T07:24:22.127Z,31.37
2022-08-14T07:27:17.232Z,31.25
2022-08-14T07:29:57.167Z,31.18
2022-08-14T07:32:44.125Z,30.94
2022-08-14T07:35:24.280Z,31.20
2022-08-14T07:38:29.688Z,30.96
2022-08-14T07:41:24.166Z,30.51
2022-08-14T07:44:31.987Z,30.52
2022-08-14T07:47:18.111Z,30.58
2022-08-14T07:50:11.569Z,31.08
2022-08-14T07:53:03.110Z,31.20
2022-08-14T07:56:09.062Z,31.70
2022-08-14T07:58:52.584Z,31.76
2022-08-14T08:01:33.577Z,31.10
2022-08-14T08:04:25.034Z,30.56
2022-08-14T08:07:05.829Z,31.05
2022-08-14T08:09:58.113Z,30.63
2022-08-14T08:12:46.313Z,29.68
2022-08-14T08:15:28.249Z,29.95
2022-08-14T08:18:27.703Z,29.56
2022-08-14T08:21:09.405Z,29.42
2022-08-14T08:24:01.077Z,29.34
2022-08-14T08:26:50.377Z,29.94
2022-08-14T08:29:38.110Z,30.18
2022-08-14T08:32:22.561Z,30.74
2022-08-14T08:35:24.049Z,29.68
2022-08-14T08:39:15.408Z,30.39
2022-08-14T08:41:35.086Z,29.85
2022-08-14T08:44:30.060Z,29.41
2022-08-14T08:47:19.061Z,29.61
2022-08-14T08:50:00.352Z,29.71
2022-08-14T08:52:55.057Z,29.91
2022-08-14T08:55:42.349Z,29.68
2022-08-14T08:58:29.032Z,29.56
2022-08-14T09:01:09.196Z,30.53
2022-08-14T09:04:14.894Z,29.71
2022-08-14T09:07:09.519Z,29.63
2022-08-14T09:10:01.112Z,30.64
2022-08-14T09:12:51.473Z,30.61
2022-08-14T09:15:42.363Z,30.43
2022-08-14T09:18:27.272Z,29.36
2022-08-14T09:21:16.147Z,28.92
2022-08-14T09:24:29.537Z,29.31
2022-08-14T09:27:03.643Z,29.97
2022-08-14T09:29:54.462Z,30.31
2022-08-14T09:33:12.611Z,29.41
2022-08-14T09:36:18.504Z,28.93
2022-08-14T09:39:39.184Z,29.80
2022-08-14T09:42:53.151Z,30.16
2022-08-14T09:45:53.443Z,29.61
2022-08-14T09:48:41.029Z,30.57
2022-08-14T09:51:25.946Z,30.78
2022-08-14T09:54:23.670Z,29.71
2022-08-14T09:57:08.948Z,28.74
2022-08-14T10:00:00.981Z,29.09
2022-08-14T10:02:52.711Z,29.82
2022-08-14T10:05:48.961Z,29.97
2022-08-14T10:08:57.028Z,30.20
2022-08-14T10:11:43.432Z,30.33
2022-08-14T10:14:37.299Z,30.13
2022-08-14T10:17:23.973Z,29.51
2022-08-14T10:20:39.387Z,29.44
2022-08-14T10:23:33.759Z,29.34
2022-08-14T10:26:28.193Z,29.68
2022-08-14T10:29:25.945Z,29.52
2022-08-14T10:32:18.233Z,30.36
2022-08-14T10:35:31.112Z,30.22
2022-08-14T10:38:12.425Z,30.13
2022-08-14T10:41:02.273Z,29.49
2022-08-14T10:43:44.816Z,29.61
2022-08-14T10:47:39.257Z,29.55
2022-08-14T10:49:42.939Z,29.54
2022-08-14T10:52:45.213Z,29.68
2022-08-14T10:55:39.460Z,29.70
2022-08-14T10:58:41.916Z,29.22
2022-08-14T11:01:41.548Z,28.78
2022-08-14T11:04:37.944Z,29.46
2022-08-14T11:07:25.937Z,30.67
2022-08-14T11:10:14.959Z,31.82
2022-08-14T11:13:11.909Z,32.50
2022-08-14T11:15:59.917Z,33.79
2022-08-14T11:18:40.669Z,32.74
2022-08-14T11:21:30.303Z,32.81
2022-08-14T11:24:50.554Z,33.29
2022-08-14T11:27:33.321Z,32.56
2022-08-14T11:30:49.832Z,32.62
2022-08-14T11:33:19.888Z,32.59
2022-08-14T11:36:18.411Z,31.96
2022-08-14T11:38:59.028Z,31.33
2022-08-14T11:41:55.885Z,29.47
2022-08-14T11:44:45.910Z,27.68
2022-08-14T11:47:43.691Z,26.83
2022-08-14T11:50:38.906Z,26.41
2022-08-14T11:53:41.926Z,26.04
2022-08-14T11:56:25.753Z,26.09
2022-08-14T11:59:26.285Z,25.85
2022-08-14T12:03:00.782Z,25.71
2022-08-14T12:05:42.855Z,25.77
2022-08-14T12:08:30.866Z,25.68
2022-08-14T12:11:26.839Z,25.74
2022-08-14T12:14:08.879Z,25.80
2022-08-14T12:17:16.849Z,26.25
2022-08-14T12:20:06.729Z,26.21
2022-08-14T12:22:58.850Z,26.11
2022-08-14T12:25:46.814Z,25.95
2022-08-14T12:29:00.173Z,26.02
2022-08-14T12:31:44.931Z,25.95
2022-08-14T12:34:33.861Z,26.06
2022-08-14T12:37:15.326Z,25.93
2022-08-14T12:40:01.935Z,26.04
2022-08-14T12:42:44.793Z,25.98
2022-08-14T12:45:46.804Z,25.92
2022-08-14T12:48:31.948Z,25.91
2022-08-14T12:51:32.782Z,25.72
2022-08-14T12:54:27.223Z,25.64
2022-08-14T12:57:22.786Z,25.64
2022-08-14T13:00:23.070Z,25.65
2022-08-14T13:03:04.806Z,25.88
2022-08-14T13:05:44.884Z,25.86
2022-08-14T13:08:33.472Z,25.78
2022-08-14T13:11:28.791Z,25.85
2022-08-14T13:14:17.345Z,25.70
2022-08-14T13:17:10.786Z,25.43
2022-08-14T13:19:55.048Z,25.26
2022-08-14T13:22:42.741Z,25.02
2022-08-14T13:25:34.611Z,25.00
2022-08-14T13:28:33.844Z,25.00
2022-08-14T13:31:23.962Z,24.97
2022-08-14T13:34:16.765Z,24.89
2022-08-14T13:37:04.408Z,24.94
2022-08-14T13:39:56.382Z,25.10
2022-08-14T13:42:49.848Z,25.08
2022-08-14T13:45:59.990Z,25.26
2022-08-14T13:48:39.745Z,25.42
2022-08-14T13:51:24.464Z,25.54
2022-08-14T13:54:12.758Z,25.59
2022-08-14T13:56:53.857Z,25.59
2022-08-14T13:59:41.765Z,25.61
2022-08-14T14:02:31.884Z,25.66
2022-08-14T14:05:21.045Z,25.64
2022-08-14T14:08:18.512Z,25.78
2022-08-14T14:11:05.747Z,25.61
2022-08-14T14:13:52.857Z,25.71
2022-08-14T14:16:33.714Z,25.65
2022-08-14T14:19:18.633Z,25.59
2022-08-14T14:22:05.740Z,25.59
2022-08-14T14:24:50.165Z,25.57
2022-08-14T14:27:41.561Z,25.60
2022-08-14T14:30:52.435Z,25.39
2022-08-14T14:33:49.504Z,25.32
2022-08-14T14:36:35.701Z,25.47
2022-08-14T14:39:23.766Z,25.53
2022-08-14T14:42:06.265Z,25.41
2022-08-14T14:44:59.732Z,25.68
2022-08-14T14:47:39.865Z,25.48
2022-08-14T14:50:28.751Z,25.76
2022-08-14T14:53:12.808Z,25.78
2022-08-14T14:56:47.151Z,25.74
2022-08-14T15:14:54.808Z,24.79
2022-08-14T15:17:41.046Z,25.04
2022-08-14T15:20:30.314Z,25.07
2022-08-14T15:23:18.227Z,24.92
2022-08-14T15:26:09.218Z,24.94
2022-08-14T15:29:02.775Z,24.98
2022-08-14T15:31:54.025Z,24.91
2022-08-14T15:34:46.051Z,25.00
2022-08-14T15:37:42.486Z,25.07
2022-08-14T15:40:29.208Z,25.09
2022-08-14T15:43:14.765Z,25.12
2022-08-14T15:46:03.212Z,24.99
2022-08-14T15:48:43.946Z,25.20
2022-08-14T15:51:31.236Z,25.07
2022-08-14T15:54:11.619Z,25.07
2022-08-14T15:57:12.166Z,24.98
2022-08-14T16:00:11.337Z,24.99
2022-08-14T16:03:09.626Z,24.93
2022-08-14T16:05:56.198Z,24.95
2022-08-14T16:08:38.207Z,24.96
2022-08-14T16:11:26.148Z,24.95
2022-08-14T16:14:20.584Z,24.92
2022-08-14T16:17:08.165Z,24.87
2022-08-14T16:19:49.352Z,24.87
2022-08-14T16:22:59.376Z,24.87
2022-08-14T16:25:47.108Z,24.80
2022-08-14T16:28:41.163Z,24.62
2022-08-14T16:31:36.246Z,24.65
2022-08-14T16:34:44.470Z,24.64
2022-08-14T16:37:34.004Z,24.56
2022-08-14T16:40:14.579Z,24.48
2022-08-14T16:43:12.994Z,24.31
2022-08-14T16:46:00.129Z,24.27
2022-08-14T16:48:55.394Z,24.29
2022-08-14T16:51:52.815Z,24.23
2022-08-14T16:54:44.424Z,24.16
2022-08-14T16:57:26.270Z,24.08
2022-08-14T17:00:19.758Z,23.95
2022-08-14T17:03:17.097Z,23.92
2022-08-14T17:06:04.087Z,23.78
2022-08-14T17:09:13.114Z,23.68
2022-08-14T17:12:07.549Z,23.54
2022-08-14T17:14:59.408Z,23.53
2022-08-14T17:17:45.078Z,23.49
2022-08-14T17:21:00.390Z,23.44
2022-08-14T17:23:45.077Z,23.41
2022-08-14T17:26:46.100Z,23.40
2022-08-14T17:32:57.130Z,23.18
2022-08-14T17:35:58.160Z,23.20
2022-08-14T17:39:06.640Z,23.14
2022-08-14T17:42:13.340Z,22.94
2022-08-14T17:47:55.085Z,22.82
2022-08-14T17:51:00.259Z,22.69
2022-08-14T17:53:52.814Z,22.64
2022-08-14T17:56:36.225Z,22.59
2022-08-14T17:59:26.071Z,22.51
2022-08-14T18:02:10.553Z,22.45
2022-08-14T18:05:08.188Z,22.45
2022-08-14T18:07:59.781Z,22.45
2022-08-14T18:10:59.057Z,22.43
2022-08-14T18:13:54.032Z,22.40
2022-08-14T18:16:42.023Z,22.42
2022-08-14T18:19:23.136Z,22.43
2022-08-14T18:22:30.990Z,22.46
2022-08-14T18:25:17.425Z,22.38
2022-08-14T18:28:16.114Z,22.39
2022-08-14T18:31:28.022Z,22.34
2022-08-14T18:34:30.623Z,22.31
2022-08-14T18:37:27.002Z,22.28
2022-08-14T18:40:40.231Z,22.27
2022-08-14T18:44:00.990Z,22.22
2022-08-14T18:47:20.015Z,22.21
2022-08-14T18:50:26.284Z,22.21
2022-08-14T18:53:15.196Z,22.24
2022-08-14T18:56:09.999Z,22.32
2022-08-14T18:58:59.763Z,22.25
2022-08-14T19:01:51.764Z,22.23
2022-08-14T19:04:51.016Z,22.24
2022-08-14T19:07:37.993Z,22.23
2022-08-14T19:10:19.059Z,22.22
2022-08-14T19:13:13.259Z,22.21
2022-08-14T19:16:26.211Z,22.27
2022-08-14T19:19:14.991Z,22.22
2022-08-14T19:22:12.717Z,22.13
2022-08-14T19:25:06.982Z,22.12
2022-08-14T19:27:51.300Z,22.13
2022-08-14T19:30:42.963Z,22.02
2022-08-14T19:33:51.959Z,22.03
2022-08-14T19:37:05.661Z,22.00
2022-08-14T19:40:15.425Z,21.94
2022-08-14T19:43:01.229Z,21.90
2022-08-14T19:45:51.963Z,21.89
2022-08-14T19:48:56.727Z,21.86
2022-08-14T19:51:43.951Z,21.82
2022-08-14T19:54:34.799Z,21.82
2022-08-14T19:57:29.924Z,21.81
2022-08-14T20:00:28.013Z,21.78
2022-08-14T20:03:24.022Z,21.76
2022-08-14T20:06:05.942Z,21.63
2022-08-14T20:11:00.995Z,21.58
2022-08-14T20:12:04.579Z,21.49
2022-08-14T20:14:51.914Z,21.43
2022-08-14T20:17:40.334Z,21.35
2022-08-14T20:20:32.557Z,21.21
2022-08-14T20:23:16.504Z,21.15
2022-08-14T20:26:02.890Z,21.16
2022-08-14T20:28:51.386Z,21.11
2022-08-14T20:31:38.896Z,21.04
2022-08-14T20:34:35.496Z,21.04
2022-08-14T20:37:22.736Z,21.04
2022-08-14T20:40:24.249Z,21.05
2022-08-14T20:43:29.894Z,21.04
2022-08-14T20:46:29.389Z,21.07
2022-08-14T20:49:25.896Z,21.09
2022-08-14T20:52:19.890Z,21.10
2022-08-14T20:55:07.897Z,21.03
2022-08-14T20:57:58.903Z,20.96
2022-08-14T21:00:57.904Z,20.96
2022-08-14T21:03:56.452Z,20.92
2022-08-14T21:07:22.899Z,20.89
2022-08-14T21:10:05.791Z,20.85
2022-08-14T21:13:25.665Z,20.82
2022-08-14T21:16:02.952Z,20.82
2022-08-14T21:19:01.893Z,20.80
2022-08-14T21:21:42.532Z,20.73
2022-08-14T21:24:39.635Z,20.71
2022-08-14T21:27:37.190Z,20.74
2022-08-14T21:30:46.731Z,20.64
2022-08-14T21:33:31.857Z,20.64
2022-08-14T21:36:22.069Z,20.57
2022-08-14T21:39:08.898Z,20.58
2022-08-14T21:42:01.828Z,20.52
2022-08-14T21:44:51.824Z,20.46
2022-08-14T21:47:33.217Z,20.46
2022-08-14T21:51:00.126Z,20.50
2022-08-14T21:53:25.135Z,20.48
2022-08-14T21:56:12.797Z,20.50
2022-08-14T21:58:56.634Z,20.46
2022-08-14T22:02:01.064Z,20.48
2022-08-14T22:04:44.918Z,20.41
2022-08-14T22:07:38.888Z,20.36
2022-08-14T22:10:24.272Z,20.39
2022-08-14T22:13:11.537Z,20.36
2022-08-14T22:16:02.359Z,20.25
2022-08-14T22:18:43.170Z,20.19
2022-08-14T22:21:34.824Z,20.17
2022-08-14T22:24:25.874Z,20.16
2022-08-14T22:27:17.889Z,20.15
2022-08-14T22:30:12.050Z,20.11
2022-08-14T22:32:57.589Z,20.18
2022-08-14T22:35:45.736Z,20.25
2022-08-14T22:38:36.505Z,20.36
2022-08-14T22:41:27.767Z,20.41
2022-08-14T22:44:41.766Z,20.38
2022-08-14T22:47:25.041Z,20.46
2022-08-14T22:50:31.597Z,20.42
2022-08-14T22:53:13.038Z,20.45
2022-08-14T22:55:59.741Z,20.54
2022-08-14T22:58:41.352Z,20.50
2022-08-14T23:01:57.025Z,20.41
2022-08-14T23:04:53.958Z,20.38
2022-08-14T23:08:59.123Z,20.30
2022-08-14T23:10:42.834Z,20.21
2022-08-14T23:13:31.726Z,20.24
2022-08-14T23:16:20.601Z,20.22
2022-08-14T23:19:08.712Z,20.24
2022-08-14T23:21:50.694Z,20.27
2022-08-14T23:24:42.728Z,20.29
2022-08-14T23:27:31.597Z,20.27
2022-08-14T23:30:34.633Z,20.20
2022-08-14T23:33:26.322Z,20.19
2022-08-14T23:36:32.400Z,20.18
2022-08-14T23:39:24.629Z,20.14
2022-08-14T23:42:11.732Z,20.11
2022-08-14T23:44:58.693Z,20.14
2022-08-14T23:47:51.306Z,20.11
2022-08-14T23:50:38.851Z,20.17
2022-08-14T23:53:48.748Z,20.07
2022-08-14T23:56:39.657Z,20.06
2022-08-14T23:59:30.236Z,20.01
